createdAt,value
2019-04-23T00:01:23.305Z,12.25
2019-04-23T00:03:40.333Z,12.22
2019-04-23T00:06:19.172Z,12.24
2019-04-23T00:08:49.027Z,12.26
2019-04-23T00:11:15.712Z,12.23
2019-04-23T00:13:46.350Z,12.25
2019-04-23T00:18:47.879Z,12.20
2019-04-23T00:21:38.917Z,12.21
2019-04-23T00:24:12.318Z,12.20
2019-04-23T00:26:36.668Z,12.26
2019-04-23T00:29:26.085Z,12.20
2019-04-23T00:31:37.686Z,12.20
2019-04-23T00:34:30.359Z,12.21
2019-04-23T00:36:37.475Z,12.20
2019-04-23T00:39:01.268Z,12.19
2019-04-23T00:41:37.700Z,12.11
2019-04-23T00:44:09.086Z,12.14
2019-04-23T00:46:35.219Z,12.10
2019-04-23T00:51:36.752Z,12.12
2019-04-23T00:54:14.876Z,12.11
2019-04-23T00:59:08.872Z,12.09
2019-04-23T01:01:47.678Z,12.11
2019-04-23T01:04:04.808Z,12.07
2019-04-23T01:06:41.139Z,12.08
2019-04-23T01:09:08.837Z,12.04
2019-04-23T01:11:39.352Z,12.10
2019-04-23T01:14:11.734Z,12.13
2019-04-23T01:16:38.194Z,12.09
2019-04-23T01:19:31.609Z,12.08
2019-04-23T01:21:43.381Z,12.05
2019-04-23T01:24:19.309Z,12.10
2019-04-23T01:30:05.330Z,12.13
2019-04-23T01:32:32.165Z,12.13
2019-04-23T01:35:09.714Z,12.07
2019-04-23T01:37:33.149Z,12.15
2019-04-23T01:40:04.324Z,12.14
2019-04-23T01:42:35.701Z,12.11
2019-04-23T01:45:11.796Z,12.10
2019-04-23T01:47:30.461Z,12.13
2019-04-23T01:50:08.192Z,11.99
2019-04-23T01:52:39.953Z,11.96
2019-04-23T01:55:12.939Z,11.98
2019-04-23T01:57:37.968Z,11.97
2019-04-23T02:00:08.540Z,11.93
2019-04-23T02:02:49.979Z,11.97
2019-04-23T02:05:09.879Z,11.97
2019-04-23T02:07:43.852Z,11.99
2019-04-23T02:12:42.071Z,11.91
2019-04-23T02:15:03.701Z,11.86
2019-04-23T02:17:38.331Z,11.88
2019-04-23T02:20:08.948Z,11.92
2019-04-23T02:25:39.747Z,11.90
2019-04-23T02:28:01.617Z,11.87
2019-04-23T02:30:58.213Z,11.84
2019-04-23T02:40:49.532Z,11.74
2019-04-23T02:45:28.835Z,11.70
2019-04-23T02:48:17.303Z,11.66
2019-04-23T02:50:39.490Z,11.65
2019-04-23T02:53:20.195Z,11.63
2019-04-23T02:58:10.264Z,11.57
2019-04-23T03:00:38.167Z,11.49
2019-04-23T03:03:09.595Z,11.49
2019-04-23T03:05:46.626Z,11.49
2019-04-23T03:08:13.761Z,11.42
2019-04-23T03:13:32.540Z,11.37
2019-04-23T03:18:35.185Z,11.36
2019-04-23T03:21:19.240Z,11.39
2019-04-23T03:23:44.233Z,11.38
2019-04-23T03:26:26.262Z,11.32
2019-04-23T03:28:57.830Z,11.32
2019-04-23T03:38:51.702Z,11.11
2019-04-23T03:41:23.631Z,11.07
2019-04-23T03:43:41.171Z,11.01
2019-04-23T03:48:47.234Z,10.95
2019-04-23T03:51:21.649Z,10.92
2019-04-23T03:56:24.124Z,10.91
2019-04-23T03:58:51.744Z,10.89
2019-04-23T04:01:23.612Z,10.83
2019-04-23T04:04:20.300Z,10.85
2019-04-23T04:09:00.839Z,10.86
2019-04-23T04:11:25.813Z,10.80
2019-04-23T04:16:17.973Z,10.84
2019-04-23T04:21:27.980Z,10.76
2019-04-23T04:24:10.786Z,10.76
2019-04-23T04:26:22.026Z,10.71
2019-04-23T04:28:50.985Z,10.73
2019-04-23T04:31:20.972Z,10.71
2019-04-23T04:41:29.095Z,10.72
2019-04-23T04:44:05.245Z,10.72
2019-04-23T04:46:37.130Z,10.75
2019-04-23T04:48:55.805Z,10.72
2019-04-23T04:51:35.354Z,10.73
2019-04-23T04:56:55.834Z,10.75
2019-04-23T04:58:52.937Z,10.77
2019-04-23T05:01:23.214Z,10.80
2019-04-23T05:03:45.970Z,10.78
2019-04-23T05:06:24.555Z,10.82
2019-04-23T05:09:04.596Z,10.78
2019-04-23T05:11:26.385Z,10.79
2019-04-23T05:13:53.005Z,10.78
2019-04-23T05:16:27.577Z,10.84
2019-04-23T05:18:52.081Z,10.88
2019-04-23T05:36:30.342Z,11.05
2019-04-23T05:41:37.011Z,11.19
2019-04-23T05:43:52.631Z,11.24
2019-04-23T05:46:31.495Z,11.32
2019-04-23T05:48:54.405Z,11.45
2019-04-23T05:51:27.974Z,11.41
2019-04-23T05:53:51.345Z,11.57
2019-04-23T05:56:21.287Z,11.63
2019-04-23T05:59:04.173Z,11.78
2019-04-23T06:04:10.547Z,12.36
2019-04-23T06:09:12.720Z,12.71
2019-04-23T06:11:45.742Z,13.23
2019-04-23T06:14:05.291Z,13.39
2019-04-23T06:16:43.073Z,13.68
2019-04-23T06:19:07.103Z,13.53
2019-04-23T06:21:47.517Z,13.77
2019-04-23T06:24:09.823Z,13.48
2019-04-23T06:26:40.144Z,13.74
2019-04-23T06:29:15.458Z,13.76
2019-04-23T06:31:40.733Z,13.96
2019-04-23T06:34:12.286Z,13.98
2019-04-23T06:39:13.416Z,13.80
2019-04-23T06:41:37.574Z,14.06
2019-04-23T06:44:19.296Z,14.21
2019-04-23T06:46:50.579Z,14.23
2019-04-23T06:49:17.036Z,13.98
2019-04-23T06:51:55.170Z,14.00
2019-04-23T06:54:19.068Z,13.83
2019-04-23T06:56:54.208Z,13.86
2019-04-23T06:59:17.067Z,14.37
2019-04-23T07:01:53.237Z,14.95
2019-04-23T07:04:17.937Z,14.56
2019-04-23T07:09:13.529Z,14.53
2019-04-23T07:11:44.771Z,14.82
2019-04-23T07:14:28.751Z,14.35
2019-04-23T07:16:49.871Z,14.83
2019-04-23T07:21:54.478Z,14.86
2019-04-23T07:24:28.737Z,14.98
2019-04-23T07:26:58.500Z,15.13
2019-04-23T07:29:17.855Z,15.13
2019-04-23T07:31:50.110Z,15.39
2019-04-23T07:34:14.065Z,15.51
2019-04-23T07:36:47.362Z,16.14
2019-04-23T07:39:25.665Z,17.33
2019-04-23T07:42:03.633Z,17.09
2019-04-23T07:44:38.708Z,16.09
2019-04-23T07:47:18.670Z,16.36
2019-04-23T07:49:37.895Z,16.75
2019-04-23T07:52:20.106Z,16.72
2019-04-23T07:54:44.227Z,16.51
2019-04-23T07:57:14.971Z,16.14
2019-04-23T07:59:48.689Z,16.27
2019-04-23T08:02:14.142Z,16.91
2019-04-23T08:04:44.378Z,16.38
2019-04-23T08:07:14.961Z,17.36
2019-04-23T08:09:47.750Z,15.95
2019-04-23T08:14:48.043Z,16.89
2019-04-23T08:17:10.737Z,16.71
2019-04-23T08:19:49.407Z,16.92
2019-04-23T08:22:20.129Z,17.10
2019-04-23T08:27:34.763Z,16.21
2019-04-23T08:30:00.584Z,16.18
2019-04-23T08:32:22.352Z,16.43
2019-04-23T08:35:03.157Z,16.67
2019-04-23T08:37:46.673Z,16.48
2019-04-23T08:40:04.317Z,16.44
2019-04-23T08:48:18.747Z,16.43
2019-04-23T08:50:40.806Z,16.64
2019-04-23T08:53:26.391Z,16.83
2019-04-23T08:55:44.158Z,16.45
2019-04-23T08:58:06.172Z,16.69
2019-04-23T09:00:46.822Z,16.71
2019-04-23T09:03:23.644Z,16.62
2019-04-23T09:06:00.640Z,16.40
2019-04-23T09:10:51.177Z,16.65
2019-04-23T09:13:40.215Z,16.76
2019-04-23T09:20:41.165Z,16.62
2019-04-23T09:23:24.487Z,16.34
2019-04-23T09:25:52.595Z,16.66
2019-04-23T09:28:31.147Z,16.71
2019-04-23T09:30:54.841Z,16.72
2019-04-23T09:33:24.068Z,16.93
2019-04-23T09:36:06.437Z,16.94
2019-04-23T09:38:39.617Z,17.00
2019-04-23T09:41:27.001Z,16.93
2019-04-23T09:44:03.007Z,16.84
2019-04-23T09:46:36.021Z,17.04
2019-04-23T09:49:18.731Z,17.14
2019-04-23T09:54:22.144Z,17.21
2019-04-23T09:56:41.224Z,17.11
2019-04-23T09:59:20.863Z,17.31
2019-04-23T10:01:40.897Z,17.33
2019-04-23T10:03:56.859Z,17.34
2019-04-23T10:06:22.831Z,17.51
2019-04-23T10:08:51.984Z,17.54
2019-04-23T10:11:19.549Z,17.54
2019-04-23T10:13:48.178Z,17.68
2019-04-23T10:16:19.869Z,17.64
2019-04-23T10:18:48.934Z,17.96
2019-04-23T10:21:17.672Z,17.96
2019-04-23T10:23:47.448Z,18.05
2019-04-23T10:26:16.517Z,17.94
2019-04-23T10:28:47.688Z,17.83
2019-04-23T10:31:16.756Z,18.08
2019-04-23T10:33:46.182Z,18.25
2019-04-23T10:36:17.877Z,18.02
2019-04-23T10:38:51.359Z,18.15
2019-04-23T10:41:16.091Z,18.11
2019-04-23T10:43:48.764Z,17.98
2019-04-23T10:46:36.531Z,18.05
2019-04-23T10:49:48.497Z,18.10
2019-04-23T10:52:04.767Z,18.24
2019-04-23T10:55:11.949Z,18.16
2019-04-23T10:57:12.706Z,18.29
2019-04-23T10:59:40.287Z,18.50
2019-04-23T11:02:29.002Z,18.64
2019-04-23T11:04:57.612Z,18.73
2019-04-23T11:07:26.474Z,18.65
2019-04-23T11:15:26.984Z,18.60
2019-04-23T11:22:45.095Z,18.75
2019-04-23T11:27:42.578Z,18.70
2019-04-23T11:30:31.968Z,18.82
2019-04-23T11:35:26.199Z,19.03
2019-04-23T11:40:15.789Z,19.09
2019-04-23T11:42:53.812Z,19.00
2019-04-23T11:45:27.783Z,19.05
2019-04-23T11:50:25.605Z,19.22
2019-04-23T11:55:33.084Z,19.27
2019-04-23T12:00:34.879Z,19.10
2019-04-23T12:02:49.718Z,19.24
2019-04-23T12:05:37.128Z,19.14
2019-04-23T12:07:57.454Z,19.16
2019-04-23T12:13:28.631Z,19.05
2019-04-23T12:15:47.925Z,18.93
2019-04-23T12:18:19.501Z,18.89
2019-04-23T12:20:46.238Z,19.04
2019-04-23T12:25:52.862Z,19.03
2019-04-23T12:28:25.241Z,18.83
2019-04-23T12:30:50.178Z,19.05
2019-04-23T12:33:31.850Z,18.94
2019-04-23T12:35:52.071Z,18.86
2019-04-23T12:38:23.839Z,18.99
2019-04-23T12:40:51.484Z,19.16
2019-04-23T12:43:19.147Z,19.11
2019-04-23T12:48:34.919Z,19.30
2019-04-23T12:55:51.852Z,19.37
2019-04-23T13:01:07.205Z,19.38
2019-04-23T13:05:42.181Z,19.53
2019-04-23T13:10:49.952Z,19.65
2019-04-23T13:13:32.408Z,19.60
2019-04-23T13:15:51.930Z,19.73
2019-04-23T13:20:58.694Z,20.00
2019-04-23T13:26:00.834Z,19.68
2019-04-23T13:31:08.236Z,20.13
2019-04-23T13:33:40.648Z,20.08
2019-04-23T13:36:28.936Z,20.49
2019-04-23T13:39:10.045Z,20.49
2019-04-23T13:43:41.031Z,20.40
2019-04-23T13:46:13.870Z,20.33
2019-04-23T13:48:34.495Z,20.47
2019-04-23T13:53:49.616Z,20.17
2019-04-23T13:56:11.229Z,20.17
2019-04-23T13:58:44.914Z,19.97
2019-04-23T14:01:23.480Z,19.92
2019-04-23T14:06:29.444Z,19.95
2019-04-23T14:11:23.324Z,19.94
2019-04-23T14:13:50.994Z,19.92
2019-04-23T14:18:56.153Z,19.63
2019-04-23T14:21:20.500Z,19.69
2019-04-23T14:24:08.335Z,19.77
2019-04-23T14:31:17.337Z,20.10
2019-04-23T14:33:53.110Z,19.88
2019-04-23T14:36:21.553Z,19.98
2019-04-23T14:46:34.873Z,19.99
2019-04-23T14:48:51.842Z,19.99
2019-04-23T14:53:48.081Z,20.00
2019-04-23T14:58:57.590Z,19.95
2019-04-23T15:01:27.493Z,19.83
2019-04-23T15:11:27.560Z,19.98
2019-04-23T15:13:51.943Z,20.14
2019-04-23T15:16:26.211Z,20.09
2019-04-23T15:24:23.252Z,19.95
2019-04-23T15:28:57.120Z,19.87
2019-04-23T15:34:13.952Z,19.87
2019-04-23T15:41:59.202Z,19.86
2019-04-23T15:44:13.480Z,19.82
2019-04-23T15:46:47.679Z,19.87
2019-04-23T15:51:54.294Z,19.54
2019-04-23T15:54:17.842Z,19.45
2019-04-23T15:56:50.536Z,19.38
2019-04-23T15:59:35.035Z,19.39
2019-04-23T16:01:40.518Z,19.39
2019-04-23T16:03:53.732Z,19.38
2019-04-23T16:06:26.336Z,19.38
2019-04-23T16:09:12.613Z,19.32
2019-04-23T16:11:46.981Z,19.28
2019-04-23T16:16:55.100Z,19.25
2019-04-23T16:19:36.039Z,19.23
2019-04-23T16:22:04.218Z,19.14
2019-04-23T16:24:56.031Z,19.16
2019-04-23T16:27:07.692Z,19.17
2019-04-23T16:29:53.786Z,19.12
2019-04-23T16:32:14.936Z,19.02
2019-04-23T16:35:10.245Z,19.02
2019-04-23T16:37:15.312Z,19.00
2019-04-23T16:39:54.383Z,18.94
2019-04-23T16:42:16.513Z,18.92
2019-04-23T16:45:00.955Z,18.87
2019-04-23T16:47:21.819Z,18.87
2019-04-23T16:49:58.270Z,18.82
2019-04-23T17:00:07.516Z,18.66
2019-04-23T17:02:19.684Z,18.64
2019-04-23T17:04:57.908Z,18.62
2019-04-23T17:07:16.744Z,18.56
2019-04-23T17:10:00.643Z,18.51
2019-04-23T17:12:17.758Z,18.49
2019-04-23T17:14:57.257Z,18.37
2019-04-23T17:17:11.919Z,18.29
2019-04-23T17:19:50.308Z,18.22
2019-04-23T17:22:17.714Z,18.14
2019-04-23T17:25:00.713Z,18.12
2019-04-23T17:27:24.038Z,18.19
2019-04-23T17:30:00.203Z,18.14
2019-04-23T17:32:20.966Z,18.02
2019-04-23T17:35:10.830Z,17.87
2019-04-23T17:42:39.284Z,17.85
2019-04-23T17:45:31.322Z,17.83
2019-04-23T17:48:05.547Z,17.70
2019-04-23T17:50:53.269Z,17.61
2019-04-23T17:53:30.154Z,17.64
2019-04-23T17:56:03.718Z,17.52
2019-04-23T17:58:23.385Z,17.49
2019-04-23T18:03:25.860Z,17.30
2019-04-23T18:05:57.218Z,17.27
2019-04-23T18:08:22.878Z,17.28
2019-04-23T18:10:56.543Z,17.22
2019-04-23T18:13:27.995Z,17.00
2019-04-23T18:16:02.998Z,17.08
2019-04-23T18:18:33.144Z,17.04
2019-04-23T18:21:21.348Z,17.04
2019-04-23T18:24:12.946Z,16.99
2019-04-23T18:26:39.434Z,16.93
2019-04-23T18:29:17.293Z,16.92
2019-04-23T18:31:38.623Z,16.90
2019-04-23T18:34:16.812Z,16.87
2019-04-23T18:36:40.236Z,16.81
2019-04-23T18:39:12.127Z,16.69
2019-04-23T18:41:50.529Z,16.80
2019-04-23T18:46:52.298Z,16.61
2019-04-23T18:49:22.471Z,16.61
2019-04-23T18:51:51.182Z,16.60
2019-04-23T18:54:14.452Z,16.54
2019-04-23T18:57:02.008Z,16.48
2019-04-23T18:59:24.884Z,16.39
2019-04-23T19:01:48.106Z,16.36
2019-04-23T19:04:33.304Z,16.38
2019-04-23T19:06:41.361Z,16.30
2019-04-23T19:09:32.475Z,16.36
2019-04-23T19:12:05.138Z,16.30
2019-04-23T19:14:38.853Z,16.23
2019-04-23T19:24:42.222Z,16.11
2019-04-23T19:32:02.970Z,16.02
2019-04-23T19:37:01.937Z,15.97
2019-04-23T19:39:36.619Z,15.89
2019-04-23T19:42:17.947Z,15.87
2019-04-23T19:47:12.594Z,15.79
2019-04-23T19:49:45.282Z,15.75
2019-04-23T19:52:04.803Z,15.65
2019-04-23T19:57:17.336Z,15.46
2019-04-23T19:59:44.790Z,15.43
2019-04-23T20:04:42.812Z,15.33
2019-04-23T20:07:36.164Z,15.27
2019-04-23T20:09:48.683Z,15.19
2019-04-23T20:14:53.455Z,15.12
2019-04-23T20:17:40.965Z,15.12
2019-04-23T20:19:45.340Z,15.07
2019-04-23T20:24:57.782Z,14.93
2019-04-23T20:27:19.342Z,14.85
2019-04-23T20:32:06.306Z,14.87
2019-04-23T20:35:06.594Z,14.76
2019-04-23T20:40:08.089Z,14.72
2019-04-23T20:42:33.914Z,14.66
2019-04-23T20:45:16.939Z,14.69
2019-04-23T20:49:51.853Z,14.52
2019-04-23T20:52:26.271Z,14.55
2019-04-23T20:55:01.121Z,14.47
2019-04-23T21:00:30.325Z,14.44
2019-04-23T21:03:18.377Z,14.37
2019-04-23T21:05:21.705Z,14.27
2019-04-23T21:10:34.262Z,14.20
2019-04-23T21:13:06.822Z,14.14
2019-04-23T21:15:29.063Z,14.13
2019-04-23T21:18:10.902Z,14.14
2019-04-23T21:25:43.820Z,14.12
2019-04-23T21:30:58.940Z,14.01
2019-04-23T21:36:11.093Z,13.99
2019-04-23T21:41:15.352Z,13.95
2019-04-23T21:53:53.122Z,13.72
2019-04-23T21:56:26.139Z,13.72
2019-04-23T22:16:38.603Z,13.54
2019-04-23T22:19:10.566Z,13.43
2019-04-23T22:21:44.433Z,13.36
2019-04-23T22:29:13.836Z,13.28
2019-04-23T22:31:37.704Z,13.28
2019-04-23T22:36:29.584Z,13.19
2019-04-23T22:39:07.729Z,13.17
2019-04-23T22:41:38.025Z,13.18
2019-04-23T22:49:14.237Z,13.16
2019-04-23T22:51:41.976Z,13.12
2019-04-23T22:54:05.549Z,13.13
2019-04-23T22:56:44.308Z,13.12
2019-04-23T22:59:26.582Z,13.05
2019-04-23T23:04:13.667Z,13.01
2019-04-23T23:11:49.067Z,13.02
2019-04-23T23:16:48.520Z,13.01
2019-04-23T23:22:03.311Z,13.00
2019-04-23T23:24:14.978Z,13.03
2019-04-23T23:26:49.428Z,13.03
2019-04-23T23:29:15.777Z,13.06
2019-04-23T23:31:52.128Z,13.04
2019-04-23T23:34:15.475Z,13.04
2019-04-23T23:41:52.475Z,13.03
2019-04-23T23:47:01.670Z,13.02
2019-04-23T23:49:17.190Z,12.97
2019-04-23T23:51:49.606Z,12.98
2019-04-23T23:56:58.816Z,12.96
2019-04-23T23:59:21.489Z,12.90
